Time;durP1;ratioP1;P1;durP2;ratioP2;P2;SDS_P1;SDS_P2;PMS_P1;PMS_P2;Temp;Humidity;BMP_temperature;BMP_pressure;BME280_temperature;BME280_humidity;BME280_pressure;Samples;Min_cycle;Max_cycle;Signal;HPM_P1;HPM_P2
2021/12/02 00:00:06;;;;;;;1.40;0.70;;;;;;;4.34;100.00;94103.47;1026774;28;20026;-72
2021/12/02 00:00:36;;;;;;;0.98;0.88;;;;;;;4.39;100.00;94113.06;1016111;29;20626;-71
2021/12/02 00:01:10;;;;;;;1.40;0.55;;;;;;;4.30;100.00;94102.44;1018373;29;20286;-70
2021/12/02 00:01:43;;;;;;;1.08;0.60;;;;;;;4.12;100.00;94070.03;1018661;29;20020;-70
2021/12/02 00:02:14;;;;;;;1.50;0.80;;;;;;;4.26;100.00;94088.44;1019967;28;20346;-70
2021/12/02 00:02:45;;;;;;;0.60;0.60;;;;;;;4.26;100.00;94106.63;1019324;29;20363;-70
2021/12/02 00:03:15;;;;;;;1.63;0.98;;;;;;;4.32;100.00;94095.16;1018308;29;21024;-71
2021/12/02 00:03:47;;;;;;;0.52;0.52;;;;;;;4.37;100.00;94100.34;1022320;29;20035;-70
2021/12/02 00:04:17;;;;;;;1.77;0.80;;;;;;;4.27;100.00;94091.81;1018461;29;20035;-71
2021/12/02 00:04:48;;;;;;;0.50;0.50;;;;;;;4.34;100.00;94095.69;1014153;29;20307;-72
2021/12/02 00:05:19;;;;;;;0.63;0.60;;;;;;;4.40;100.00;94097.22;1018582;29;20035;-72
2021/12/02 00:05:49;;;;;;;0.65;0.50;;;;;;;4.34;100.00;94094.91;1018311;29;20030;-72
2021/12/02 00:06:20;;;;;;;0.50;0.50;;;;;;;4.41;100.00;94106.56;1018834;29;20024;-70
2021/12/02 00:06:50;;;;;;;1.30;0.63;;;;;;;4.43;100.00;94099.31;1018210;29;20085;-67
2021/12/02 00:07:21;;;;;;;0.70;0.70;;;;;;;4.40;100.00;94099.81;1020708;29;20034;-71
2021/12/02 00:07:51;;;;;;;0.60;0.45;;;;;;;4.36;100.00;94103.19;1022213;29;20512;-70
2021/12/02 00:08:21;;;;;;;1.00;0.55;;;;;;;4.37;100.00;94105.53;1026484;28;20778;-70
2021/12/02 00:08:52;;;;;;;1.52;0.75;;;;;;;4.33;100.00;94099.31;1027479;28;20574;-72
2021/12/02 00:09:22;;;;;;;1.00;0.60;;;;;;;4.35;100.00;94102.41;1026209;28;20065;-70
2021/12/02 00:09:55;;;;;;;0.80;0.52;;;;;;;4.15;100.00;94066.91;1022439;28;20405;-68
2021/12/02 00:10:30;;;;;;;0.65;0.47;;;;;;;4.34;100.00;94100.88;1030083;28;20018;-72
2021/12/02 00:11:00;;;;;;;1.77;0.60;;;;;;;4.37;100.00;94094.38;1022413;28;20274;-70
2021/12/02 00:11:31;;;;;;;2.72;0.60;;;;;;;4.41;100.00;94098.78;1025300;28;20762;-71
2021/12/02 00:12:01;;;;;;;0.63;0.50;;;;;;;4.34;100.00;94100.88;1030678;28;20027;-70
2021/12/02 00:12:32;;;;;;;1.50;0.63;;;;;;;4.24;100.00;94093.88;1027807;28;20026;-71
2021/12/02 00:13:03;;;;;;;1.45;0.68;;;;;;;4.29;100.00;94090.50;1018259;29;20034;-72
2021/12/02 00:14:25;;;;;;;1.20;0.52;;;;;;;4.31;100.00;94091.00;1021830;29;20279;-70
2021/12/02 00:14:55;;;;;;;0.55;0.55;;;;;;;4.28;100.00;94086.34;1029532;28;20333;-69
2021/12/02 00:15:32;;;;;;;0.52;0.50;;;;;;;4.30;100.00;94094.66;1021500;29;20309;-70
2021/12/02 00:17:22;;;;;;;0.70;0.50;;;;;;;4.30;100.00;94092.06;1026392;28;20827;-70
2021/12/02 00:17:51;;;;;;;0.52;0.50;;;;;;;4.36;100.00;94088.41;1020491;28;21001;-73
2021/12/02 00:21:07;;;;;;;0.40;0.40;;;;;;;4.19;100.00;94093.91;1031156;28;20280;-70
2021/12/02 00:21:38;;;;;;;0.57;0.50;;;;;;;4.18;100.00;94099.34;1026533;28;20672;-72
2021/12/02 00:22:10;;;;;;;0.47;0.40;;;;;;;4.19;100.00;94093.91;1030606;28;20584;-70
2021/12/02 00:23:25;;;;;;;0.40;0.38;;;;;;;4.17;100.00;94100.41;1029018;28;20829;-73
2021/12/02 00:24:03;;;;;;;0.47;0.45;;;;;;;4.11;100.00;94093.66;1017839;29;20358;-70
2021/12/02 00:24:35;;;;;;;0.40;0.40;;;;;;;4.17;100.00;94090.00;1014353;29;20363;-72
2021/12/02 00:25:05;;;;;;;1.95;1.63;;;;;;;4.17;100.00;94101.16;1014010;29;20400;-70
2021/12/02 00:25:36;;;;;;;0.40;0.40;;;;;;;4.17;100.00;94097.81;1018349;29;20341;-75
2021/12/02 00:26:13;;;;;;;0.40;0.40;;;;;;;4.22;100.00;94100.38;1010110;29;20809;-73
2021/12/02 00:26:44;;;;;;;0.30;0.30;;;;;;;4.25;100.00;94098.03;1026401;28;20034;-71
2021/12/02 00:27:14;;;;;;;1.27;0.50;;;;;;;4.22;100.00;94084.78;1022586;29;20255;-71
2021/12/02 00:27:44;;;;;;;0.80;0.60;;;;;;;4.25;100.00;94102.44;1026080;28;20015;-71
2021/12/02 00:28:15;;;;;;;0.63;0.43;;;;;;;4.22;100.00;94095.19;1030615;28;20014;-71
2021/12/02 00:28:49;;;;;;;0.30;0.30;;;;;;;4.12;100.00;94077.81;1038187;28;20069;-71
2021/12/02 00:29:21;;;;;;;0.30;0.30;;;;;;;4.23;100.00;94096.75;1029370;28;20539;-69
2021/12/02 00:29:51;;;;;;;0.40;0.40;;;;;;;4.12;100.00;94079.63;1026314;28;20266;-71
2021/12/02 00:30:22;;;;;;;0.60;0.50;;;;;;;4.23;100.00;94099.34;1018252;29;20263;-70
2021/12/02 00:30:58;;;;;;;0.65;0.40;;;;;;;4.24;100.00;94098.31;1018344;29;20023;-70
2021/12/02 00:31:30;;;;;;;0.47;0.47;;;;;;;4.22;100.00;94100.38;1015397;29;20036;-71
2021/12/02 00:32:06;;;;;;;1.85;0.50;;;;;;;3.98;100.00;94066.41;1019452;29;20270;-70
2021/12/02 00:32:36;;;;;;;0.40;0.40;;;;;;;4.19;100.00;94088.72;1021668;28;20272;-70
2021/12/02 00:33:07;;;;;;;0.60;0.60;;;;;;;4.18;100.00;94094.16;1022081;29;20271;-70
2021/12/02 00:33:37;;;;;;;0.63;0.43;;;;;;;4.15;100.00;94097.28;1026440;28;20014;-70
2021/12/02 00:34:08;;;;;;;0.50;0.50;;;;;;;4.19;100.00;94106.09;1022292;29;20074;-70
2021/12/02 00:34:44;;;;;;;0.60;0.60;;;;;;;4.09;100.00;94093.13;1021051;29;20031;-71
2021/12/02 00:35:16;;;;;;;0.70;0.40;;;;;;;4.12;100.00;94095.19;1014561;29;20268;-70
2021/12/02 00:35:47;;;;;;;0.55;0.47;;;;;;;4.08;100.00;94091.56;1026086;28;20525;-72
2021/12/02 00:36:18;;;;;;;0.35;0.30;;;;;;;4.09;100.00;94093.13;1023290;28;20331;-71
2021/12/02 00:36:51;;;;;;;0.30;0.30;;;;;;;4.09;100.00;94108.69;1022829;28;20023;-70
2021/12/02 00:37:22;;;;;;;0.70;0.50;;;;;;;4.05;100.00;94103.25;1023150;28;20306;-71
2021/12/02 00:37:52;;;;;;;0.75;0.60;;;;;;;4.06;100.00;94104.03;1022415;29;20285;-70
2021/12/02 00:38:23;;;;;;;0.45;0.45;;;;;;;4.00;100.00;94104.03;1019903;28;20034;-72
2021/12/02 00:38:54;;;;;;;0.90;0.50;;;;;;;4.02;100.00;94106.38;1022348;28;20026;-70
2021/12/02 00:39:24;;;;;;;0.40;0.40;;;;;;;3.84;100.00;94073.19;1014667;29;20272;-71
2021/12/02 00:39:55;;;;;;;0.30;0.30;;;;;;;4.06;100.00;94104.81;1018459;29;20024;-72
2021/12/02 00:40:26;;;;;;;0.43;0.40;;;;;;;3.98;100.00;94095.72;1022659;28;20118;-69
2021/12/02 00:40:56;;;;;;;0.60;0.45;;;;;;;3.99;100.00;94097.31;1030299;28;20527;-70
2021/12/02 00:41:27;;;;;;;0.63;0.40;;;;;;;3.93;100.00;94090.56;1030185;28;20034;-70
2021/12/02 00:41:58;;;;;;;0.77;0.40;;;;;;;3.90;100.00;94096.28;1026131;28;20070;-72
2021/12/02 00:42:28;;;;;;;0.63;0.52;;;;;;;3.92;100.00;94104.59;1016842;29;20030;-70
2021/12/02 00:42:58;;;;;;;0.65;0.47;;;;;;;3.87;100.00;94104.56;1026031;28;20023;-72
2021/12/02 00:43:29;;;;;;;0.40;0.40;;;;;;;3.88;100.00;94106.13;1022106;28;20429;-74
2021/12/02 00:43:59;;;;;;;0.50;0.50;;;;;;;3.94;100.00;94106.91;1026484;28;20057;-71
2021/12/02 00:44:33;;;;;;;0.95;0.50;;;;;;;3.88;100.00;94098.34;1025467;28;20027;-68
2021/12/02 00:45:03;;;;;;;0.38;0.38;;;;;;;3.94;100.00;94110.28;1024754;28;20602;-70
2021/12/02 00:45:34;;;;;;;0.80;0.40;;;;;;;3.94;100.00;94096.53;1022337;29;20267;-71
2021/12/02 00:46:08;;;;;;;0.50;0.50;;;;;;;3.96;100.00;94110.81;1022267;29;20074;-71
2021/12/02 00:46:43;;;;;;;1.50;0.50;;;;;;;3.89;100.00;94109.50;1021988;28;20114;-71
2021/12/02 00:47:14;;;;;;;1.38;0.63;;;;;;;3.92;100.00;94104.59;1022260;28;20946;-70
2021/12/02 00:47:45;;;;;;;0.60;0.50;;;;;;;3.92;100.00;94109.78;1019666;28;20268;-71
2021/12/02 00:48:16;;;;;;;0.70;0.50;;;;;;;3.69;100.00;94082.53;1019517;29;20299;-73
2021/12/02 00:48:46;;;;;;;0.50;0.50;;;;;;;3.81;100.00;94097.06;1015071;29;20020;-71
2021/12/02 00:49:18;;;;;;;0.60;0.40;;;;;;;3.86;100.00;94105.63;1018592;29;20015;-71
2021/12/02 00:49:48;;;;;;;1.05;0.70;;;;;;;3.95;100.00;94109.22;1026463;28;20022;-71
2021/12/02 00:50:19;;;;;;;1.02;0.63;;;;;;;3.90;100.00;94109.25;1027849;28;20361;-71
2021/12/02 00:50:49;;;;;;;1.08;0.50;;;;;;;3.93;100.00;94108.72;1018348;29;20011;-71
2021/12/02 00:51:20;;;;;;;0.88;0.45;;;;;;;3.98;100.00;94105.34;1020726;28;20016;-70
2021/12/02 00:51:55;;;;;;;0.45;0.45;;;;;;;4.03;100.00;94114.97;1027252;28;20029;-70
2021/12/02 00:52:26;;;;;;;0.65;0.65;;;;;;;3.96;100.00;94110.03;1034221;28;20041;-70
2021/12/02 00:52:57;;;;;;;0.85;0.50;;;;;;;3.96;100.00;94116.00;1033400;28;20268;-74
2021/12/02 00:53:27;;;;;;;1.30;0.63;;;;;;;3.94;100.00;94107.69;1019549;28;20279;-71
2021/12/02 00:54:06;;;;;;;0.47;0.47;;;;;;;3.89;100.00;94110.28;1018429;29;20012;-70
2021/12/02 00:54:39;;;;;;;0.82;0.60;;;;;;;3.94;100.00;94112.88;1017867;29;20098;-71
2021/12/02 00:55:09;;;;;;;0.88;0.60;;;;;;;3.95;100.00;94113.66;1021920;28;20737;-72
2021/12/02 00:55:41;;;;;;;0.45;0.45;;;;;;;3.97;100.00;94117.53;1022061;29;20262;-71
2021/12/02 00:56:13;;;;;;;0.82;0.60;;;;;;;4.02;100.00;94124.53;1022297;29;20098;-72
2021/12/02 00:56:43;;;;;;;0.65;0.50;;;;;;;4.03;100.00;94117.56;1023029;28;20274;-72
2021/12/02 00:57:14;;;;;;;0.50;0.50;;;;;;;4.06;100.00;94119.59;1025633;28;20269;-71
2021/12/02 00:57:44;;;;;;;0.50;0.47;;;;;;;4.08;100.00;94133.09;1018707;29;20078;-67
2021/12/02 00:58:20;;;;;;;1.23;0.50;;;;;;;4.09;100.00;94124.28;1018151;29;20084;-69
2021/12/02 00:58:51;;;;;;;0.50;0.50;;;;;;;3.96;100.00;94113.41;1019572;29;20011;-70
2021/12/02 00:59:21;;;;;;;0.60;0.40;;;;;;;4.07;100.00;94126.38;1018414;29;20303;-71
2021/12/02 00:59:52;;;;;;;1.50;0.55;;;;;;;4.09;100.00;94124.28;1026812;28;20022;-70
2021/12/02 01:00:22;;;;;;;0.70;0.60;;;;;;;4.07;100.00;94121.19;1026227;28;20023;-71
2021/12/02 01:00:53;;;;;;;0.55;0.45;;;;;;;3.97;100.00;94117.53;1026417;28;20026;-70
2021/12/02 01:01:25;;;;;;;0.85;0.70;;;;;;;4.10;100.00;94128.44;1026022;28;20077;-72
2021/12/02 01:01:55;;;;;;;0.47;0.47;;;;;;;4.15;100.00;94128.41;1026201;28;20465;-70
2021/12/02 01:02:26;;;;;;;0.57;0.50;;;;;;;4.07;100.00;94119.34;1022207;28;20258;-71
2021/12/02 01:02:58;;;;;;;0.55;0.52;;;;;;;4.11;100.00;94132.59;1022325;29;20051;-72
2021/12/02 01:03:35;;;;;;;0.65;0.45;;;;;;;3.94;100.00;94101.72;1026142;28;20019;-71
2021/12/02 01:04:11;;;;;;;1.92;0.50;;;;;;;4.11;100.00;94127.41;1026046;28;20278;-72
2021/12/02 01:04:42;;;;;;;0.40;0.40;;;;;;;4.06;100.00;94124.78;1023664;28;20267;-70
2021/12/02 01:05:12;;;;;;;0.50;0.50;;;;;;;4.09;100.00;94126.88;1025840;28;20798;-72
2021/12/02 01:05:43;;;;;;;0.73;0.60;;;;;;;4.01;100.00;94117.78;1026928;28;20050;-70
2021/12/02 01:06:13;;;;;;;0.55;0.50;;;;;;;3.89;100.00;94104.31;1018313;29;20681;-73
2021/12/02 01:06:43;;;;;;;0.52;0.50;;;;;;;4.05;100.00;94125.84;1018156;29;20088;-70
2021/12/02 01:07:14;;;;;;;0.68;0.60;;;;;;;4.01;100.00;94123.75;1022143;29;20027;-71
2021/12/02 01:07:44;;;;;;;0.63;0.55;;;;;;;3.93;100.00;94113.91;1022155;29;20011;-71
2021/12/02 01:08:16;;;;;;;0.55;0.55;;;;;;;3.99;100.00;94125.06;1029794;28;20014;-70
2021/12/02 01:08:46;;;;;;;0.35;0.32;;;;;;;4.03;100.00;94120.91;1025943;28;20019;-71
2021/12/02 01:09:17;;;;;;;0.50;0.50;;;;;;;4.08;100.00;94128.69;1018481;29;20264;-71
2021/12/02 01:09:49;;;;;;;0.30;0.30;;;;;;;3.92;100.00;94114.16;1022296;29;20047;-70
2021/12/02 01:10:20;;;;;;;0.70;0.40;;;;;;;3.98;100.00;94124.28;1027426;28;20027;-70
2021/12/02 01:10:50;;;;;;;0.57;0.50;;;;;;;4.03;100.00;94130.53;1029554;28;20270;-68
2021/12/02 01:11:21;;;;;;;0.73;0.50;;;;;;;3.99;100.00;94125.84;1022698;28;20908;-70
2021/12/02 01:11:54;;;;;;;0.60;0.60;;;;;;;3.99;100.00;94120.66;1024756;28;20659;-71
2021/12/02 01:12:25;;;;;;;0.47;0.47;;;;;;;3.97;100.00;94127.91;1022094;28;20102;-71
2021/12/02 01:12:56;;;;;;;0.50;0.45;;;;;;;3.91;100.00;94121.16;1026356;28;20277;-72
2021/12/02 01:13:27;;;;;;;0.40;0.40;;;;;;;3.91;100.00;94115.97;1022995;28;20047;-70
2021/12/02 01:13:57;;;;;;;0.70;0.63;;;;;;;3.94;100.00;94118.06;1029300;28;20281;-69
2021/12/02 01:14:28;;;;;;;0.70;0.70;;;;;;;4.00;100.00;94126.63;1026115;28;20074;-72
2021/12/02 01:14:58;;;;;;;0.30;0.30;;;;;;;4.01;100.00;94131.53;1021894;28;20035;-72
2021/12/02 01:15:29;;;;;;;0.65;0.50;;;;;;;3.98;100.00;94126.88;1030032;28;20018;-70
2021/12/02 01:15:59;;;;;;;1.50;0.55;;;;;;;3.98;100.00;94129.47;1030200;28;20038;-70
2021/12/02 01:16:30;;;;;;;1.25;0.70;;;;;;;3.87;100.00;94112.34;1030092;28;20091;-70
2021/12/02 01:17:00;;;;;;;0.70;0.68;;;;;;;3.86;100.00;94105.63;1022081;29;20031;-71
2021/12/02 01:17:31;;;;;;;0.68;0.50;;;;;;;4.01;100.00;94128.94;1017887;29;20569;-72
2021/12/02 01:18:01;;;;;;;0.40;0.40;;;;;;;4.03;100.00;94133.13;1018426;29;20299;-70
2021/12/02 01:18:32;;;;;;;0.40;0.40;;;;;;;3.95;100.00;94113.66;1014640;29;20027;-73
2021/12/02 01:19:03;;;;;;;1.35;0.60;;;;;;;3.99;100.00;94120.66;1026103;28;20023;-72
2021/12/02 01:19:33;;;;;;;0.60;0.60;;;;;;;4.04;100.00;94119.88;1027521;28;20023;-71
2021/12/02 01:20:04;;;;;;;0.55;0.55;;;;;;;4.11;100.00;94125.56;1030262;28;20723;-71
2021/12/02 01:20:35;;;;;;;0.60;0.52;;;;;;;4.03;100.00;94110.53;1026207;28;20073;-70
2021/12/02 01:21:05;;;;;;;0.50;0.50;;;;;;;4.04;100.00;94106.91;1029917;28;20758;-71
2021/12/02 01:21:38;;;;;;;0.60;0.60;;;;;;;4.06;100.00;94124.78;1022419;29;20728;-71
2021/12/02 01:22:08;;;;;;;1.13;0.50;;;;;;;4.03;100.00;94115.72;1018410;29;20122;-71
2021/12/02 01:22:39;;;;;;;0.77;0.77;;;;;;;4.07;100.00;94126.38;1017746;29;20259;-71
2021/12/02 01:23:09;;;;;;;1.50;0.60;;;;;;;4.09;100.00;94125.06;1018629;29;20015;-70
2021/12/02 01:23:39;;;;;;;0.50;0.50;;;;;;;4.05;100.00;94113.63;1018391;29;20624;-71
2021/12/02 01:24:12;;;;;;;0.60;0.60;;;;;;;3.87;100.00;94094.19;1018454;29;20395;-72
2021/12/02 01:24:43;;;;;;;0.73;0.70;;;;;;;3.98;100.00;94111.31;1021045;29;20070;-70
2021/12/02 01:25:14;;;;;;;1.08;0.80;;;;;;;3.99;100.00;94123.25;1026118;28;20656;-72
2021/12/02 01:26:00;;;;;;;0.68;0.50;;;;;;;3.99;100.00;94109.47;1030399;28;20519;-73
2021/12/02 01:26:32;;;;;;;1.42;0.70;;;;;;;3.90;100.00;94111.06;1022115;29;20063;-70
2021/12/02 01:27:04;;;;;;;0.50;0.50;;;;;;;3.96;100.00;94121.19;1022706;28;21340;-72
2021/12/02 01:27:35;;;;;;;0.98;0.45;;;;;;;3.90;100.00;94114.44;1022554;29;20800;-72
2021/12/02 01:28:05;;;;;;;0.40;0.40;;;;;;;3.93;100.00;94111.31;1018466;29;20279;-70
2021/12/02 01:28:36;;;;;;;1.13;0.60;;;;;;;3.91;100.00;94103.00;1026452;28;20026;-70
2021/12/02 01:29:07;;;;;;;0.50;0.50;;;;;;;4.05;100.00;94118.06;1021949;29;20034;-71
2021/12/02 01:29:37;;;;;;;1.88;0.50;;;;;;;3.98;100.00;94106.13;1022368;29;20023;-73
2021/12/02 01:30:08;;;;;;;0.63;0.57;;;;;;;3.99;100.00;94099.91;1022310;29;20023;-71
2021/12/02 01:30:38;;;;;;;1.48;0.70;;;;;;;4.04;100.00;94113.91;1026130;28;20022;-71
2021/12/02 01:31:09;;;;;;;1.27;0.80;;;;;;;4.09;100.00;94116.47;1025232;28;20559;-68
2021/12/02 01:31:39;;;;;;;0.60;0.60;;;;;;;4.06;100.00;94096.25;1018330;29;20479;-72
2021/12/02 01:32:10;;;;;;;0.85;0.65;;;;;;;4.19;100.00;94113.88;1025733;28;20388;-70
2021/12/02 01:32:41;;;;;;;0.80;0.68;;;;;;;4.24;100.00;94117.25;1026331;28;20265;-71
2021/12/02 01:33:11;;;;;;;1.80;0.80;;;;;;;4.26;100.00;94124.78;1024629;28;20278;-71
2021/12/02 01:33:43;;;;;;;0.60;0.50;;;;;;;4.21;100.00;94111.81;1026335;28;20011;-70
2021/12/02 01:34:14;;;;;;;1.20;0.70;;;;;;;4.23;100.00;94120.13;1022347;29;20015;-70
2021/12/02 01:34:46;;;;;;;0.70;0.55;;;;;;;4.22;100.00;94116.72;1029456;28;21083;-70
2021/12/02 01:35:16;;;;;;;0.57;0.50;;;;;;;4.27;100.00;94118.53;1030557;28;20066;-72
2021/12/02 01:36:00;;;;;;;0.68;0.60;;;;;;;4.24;100.00;94117.25;1030232;28;20388;-70
2021/12/02 01:36:32;;;;;;;0.68;0.52;;;;;;;4.33;100.00;94135.69;1028279;28;20636;-70
2021/12/02 01:37:03;;;;;;;1.17;0.45;;;;;;;4.31;100.00;94126.59;1025960;28;20266;-71
2021/12/02 01:37:33;;;;;;;0.50;0.47;;;;;;;4.35;100.00;94128.38;1018885;29;20291;-71
2021/12/02 01:38:04;;;;;;;0.63;0.63;;;;;;;4.35;100.00;94133.56;1025338;28;20011;-71
2021/12/02 01:38:34;;;;;;;1.38;0.70;;;;;;;4.36;100.00;94145.53;1028810;28;20105;-71
2021/12/02 01:39:05;;;;;;;0.55;0.52;;;;;;;4.35;100.00;94138.78;1023189;28;20024;-71
2021/12/02 01:39:36;;;;;;;1.30;0.80;;;;;;;4.32;100.00;94143.72;1020905;29;20130;-72
2021/12/02 01:40:06;;;;;;;1.85;0.85;;;;;;;4.34;100.00;94152.03;1021033;29;20015;-71
2021/12/02 01:40:37;;;;;;;1.17;0.80;;;;;;;4.22;100.00;94139.31;1020967;28;20028;-72
2021/12/02 01:41:07;;;;;;;0.90;0.68;;;;;;;4.25;100.00;94144.75;1022788;29;20392;-73
2021/12/02 01:41:51;;;;;;;0.77;0.77;;;;;;;4.19;100.00;94150.22;1022904;29;20234;-71
2021/12/02 01:42:27;;;;;;;0.50;0.50;;;;;;;4.08;100.00;94138.28;1023168;28;20059;-71
2021/12/02 01:42:58;;;;;;;0.47;0.47;;;;;;;4.06;100.00;94148.94;1027017;28;20278;-70
2021/12/02 01:43:37;;;;;;;0.30;0.30;;;;;;;4.00;100.00;94152.59;1026863;28;20318;-72
2021/12/02 01:44:10;;;;;;;0.77;0.30;;;;;;;3.98;100.00;94152.03;1032787;28;20611;-71
2021/12/02 01:44:41;;;;;;;1.48;0.50;;;;;;;3.92;100.00;94153.09;1026497;28;20258;-72
2021/12/02 01:45:14;;;;;;;0.40;0.40;;;;;;;3.90;100.00;94158.53;1018638;29;20272;-71
2021/12/02 01:45:45;;;;;;;0.50;0.30;;;;;;;3.85;100.00;94157.75;1022167;29;20294;-73
2021/12/02 01:46:23;;;;;;;0.50;0.50;;;;;;;3.78;100.00;94158.00;1031020;28;20292;-71
2021/12/02 01:46:58;;;;;;;0.40;0.20;;;;;;;3.73;100.00;94147.66;1026996;28;20504;-70
2021/12/02 01:47:31;;;;;;;1.10;0.40;;;;;;;3.69;100.00;94149.97;1014982;29;20268;-74
2021/12/02 01:48:01;;;;;;;0.20;0.20;;;;;;;3.68;100.00;94152.81;1023010;29;20283;-71
2021/12/02 01:48:32;;;;;;;0.30;0.30;;;;;;;3.59;100.00;94143.97;1018670;29;20256;-70
2021/12/02 01:49:04;;;;;;;0.28;0.28;;;;;;;3.54;100.00;94149.94;1026479;28;20066;-71
2021/12/02 01:49:36;;;;;;;0.52;0.10;;;;;;;3.54;100.00;94155.91;1026878;28;20018;-71
2021/12/02 01:50:07;;;;;;;0.47;0.20;;;;;;;3.53;100.00;94159.53;1032733;28;20777;-70
2021/12/02 01:50:40;;;;;;;0.25;0.20;;;;;;;3.53;100.00;94167.31;1021643;29;20279;-71
2021/12/02 01:51:11;;;;;;;0.47;0.15;;;;;;;3.45;100.00;94156.66;1019102;29;20271;-71
2021/12/02 01:51:43;;;;;;;0.40;0.20;;;;;;;3.42;100.00;94146.81;1026432;28;20282;-72
2021/12/02 01:52:14;;;;;;;0.40;0.30;;;;;;;3.46;100.00;94159.03;1027058;28;20034;-71
2021/12/02 01:52:54;;;;;;;0.22;0.22;;;;;;;3.43;100.00;94156.94;1018717;29;20271;-69
2021/12/02 01:53:25;;;;;;;1.95;0.30;;;;;;;3.37;100.00;94154.59;1018889;29;20028;-70
2021/12/02 01:54:07;;;;;;;0.10;0.10;;;;;;;3.29;100.00;94158.47;1022844;29;20019;-71
2021/12/02 01:54:45;;;;;;;1.77;0.22;;;;;;;3.20;100.00;94149.63;1018370;29;20603;-71
2021/12/02 01:55:16;;;;;;;1.90;0.47;;;;;;;3.30;100.00;94157.44;1022644;29;20267;-72
2021/12/02 01:55:46;;;;;;;0.38;0.30;;;;;;;3.32;100.00;94160.56;1030371;28;20741;-72
2021/12/02 01:56:18;;;;;;;0.20;0.20;;;;;;;3.28;100.00;94162.06;1027076;28;20019;-73
2021/12/02 01:56:53;;;;;;;0.65;0.38;;;;;;;3.21;100.00;94156.34;1027272;28;20134;-72
2021/12/02 01:57:29;;;;;;;0.22;0.22;;;;;;;3.12;100.00;94160.47;1023492;29;20286;-72
2021/12/02 01:58:04;;;;;;;0.17;0.10;;;;;;;3.18;100.00;94167.22;1019193;29;20401;-72
2021/12/02 01:58:54;;;;;;;0.20;0.20;;;;;;;3.20;100.00;94170.34;1020948;29;20279;-71
2021/12/02 01:59:33;;;;;;;0.30;0.10;;;;;;;3.17;100.00;94165.69;1023656;29;20344;-70
2021/12/02 02:00:07;;;;;;;0.28;0.28;;;;;;;3.13;100.00;94165.41;1019110;29;20346;-70
2021/12/02 02:00:43;;;;;;;0.15;0.15;;;;;;;3.09;100.00;94164.38;1019764;29;20271;-71
2021/12/02 02:01:21;;;;;;;0.45;0.13;;;;;;;3.12;100.00;94169.06;1022181;29;20260;-70
2021/12/02 02:01:53;;;;;;;2.20;0.28;;;;;;;3.04;100.00;94151.38;1026187;28;21021;-71
2021/12/02 02:02:24;;;;;;;0.20;0.20;;;;;;;3.06;100.00;94165.66;1019417;29;20271;-70
2021/12/02 02:02:54;;;;;;;0.50;0.20;;;;;;;3.05;100.00;94171.88;1023584;28;20262;-70
2021/12/02 02:03:25;;;;;;;0.22;0.10;;;;;;;3.04;100.00;94166.94;1019655;29;20031;-70
2021/12/02 02:03:55;;;;;;;0.47;0.20;;;;;;;3.02;100.00;94169.00;1026515;28;20027;-72
2021/12/02 02:04:26;;;;;;;0.40;0.25;;;;;;;2.96;100.00;94163.03;1023336;29;20094;-72
2021/12/02 02:04:58;;;;;;;0.30;0.30;;;;;;;2.96;100.00;94170.03;1022736;29;20043;-73
2021/12/02 02:05:28;;;;;;;0.65;0.30;;;;;;;2.97;100.00;94174.94;1027101;28;20102;-71
2021/12/02 02:05:59;;;;;;;1.17;0.22;;;;;;;2.91;100.00;94170.75;1019993;29;20294;-69
2021/12/02 02:06:32;;;;;;;0.63;0.20;;;;;;;2.80;100.00;94151.03;1023697;28;20524;-70
2021/12/02 02:07:10;;;;;;;0.32;0.20;;;;;;;2.96;100.00;94168.22;1019239;29;20024;-69
2021/12/02 02:08:03;;;;;;;0.20;0.20;;;;;;;2.95;100.00;94179.59;1011843;29;20810;-69
2021/12/02 02:08:33;;;;;;;1.05;0.25;;;;;;;2.91;100.00;94180.34;1027181;28;20288;-72
2021/12/02 02:09:04;;;;;;;0.35;0.28;;;;;;;2.82;100.00;94164.53;1027510;28;20322;-71
2021/12/02 02:09:35;;;;;;;0.40;0.40;;;;;;;2.89;100.00;94177.25;1019601;29;20024;-70
2021/12/02 02:10:06;;;;;;;0.40;0.30;;;;;;;2.78;100.00;94168.63;1023451;29;20082;-73
2021/12/02 02:10:38;;;;;;;1.10;0.40;;;;;;;2.78;100.00;94169.44;1023106;29;20110;-71
2021/12/02 02:11:09;;;;;;;0.52;0.40;;;;;;;2.82;100.00;94187.84;1023483;29;20149;-70
2021/12/02 02:11:39;;;;;;;0.82;0.45;;;;;;;2.76;100.00;94163.72;1027155;28;20290;-71
2021/12/02 02:12:11;;;;;;;0.50;0.45;;;;;;;2.83;100.00;94181.63;1024725;28;20567;-72
2021/12/02 02:12:41;;;;;;;0.73;0.50;;;;;;;2.79;100.00;94181.34;1023790;28;20066;-71
2021/12/02 02:13:12;;;;;;;0.88;0.50;;;;;;;2.83;100.00;94181.63;1027687;28;20321;-73
2021/12/02 02:13:44;;;;;;;1.95;0.50;;;;;;;2.82;100.00;94180.06;1023119;29;20027;-70
2021/12/02 02:14:14;;;;;;;0.40;0.40;;;;;;;2.75;100.00;94164.75;1019584;29;20338;-72
2021/12/02 02:14:45;;;;;;;0.30;0.30;;;;;;;2.83;100.00;94182.41;1014770;29;20937;-69
2021/12/02 02:15:16;;;;;;;0.52;0.30;;;;;;;2.70;100.00;94169.13;1019549;29;20024;-73
2021/12/02 02:15:50;;;;;;;0.65;0.40;;;;;;;2.78;100.00;94182.38;1026911;28;20026;-72
2021/12/02 02:16:20;;;;;;;0.43;0.43;;;;;;;2.73;100.00;94166.03;1024312;28;20027;-71
2021/12/02 02:16:51;;;;;;;0.45;0.35;;;;;;;2.74;100.00;94183.13;1015465;29;20473;-71
2021/12/02 02:17:32;;;;;;;0.95;0.25;;;;;;;2.77;100.00;94185.22;1019361;29;20487;-72
2021/12/02 02:18:21;;;;;;;0.50;0.50;;;;;;;2.71;100.00;94178.44;1019468;29;20028;-70
2021/12/02 02:18:51;;;;;;;1.42;0.30;;;;;;;2.78;100.00;94189.34;1030752;28;20257;-70
2021/12/02 02:19:22;;;;;;;0.55;0.30;;;;;;;2.75;100.00;94189.84;1023470;29;20282;-71
2021/12/02 02:19:53;;;;;;;1.52;0.30;;;;;;;2.75;100.00;94189.84;1021979;29;20028;-71
2021/12/02 02:20:40;;;;;;;0.20;0.20;;;;;;;2.72;100.00;94188.56;1023595;29;20310;-70
2021/12/02 02:21:14;;;;;;;0.30;0.30;;;;;;;2.70;100.00;94187.25;1025835;28;20034;-71
2021/12/02 02:21:44;;;;;;;0.55;0.22;;;;;;;2.69;100.00;94178.72;1024650;28;20278;-71
2021/12/02 02:22:20;;;;;;;0.30;0.30;;;;;;;2.63;100.00;94176.34;1023461;29;20275;-70
2021/12/02 02:22:50;;;;;;;0.20;0.20;;;;;;;2.68;100.00;94184.91;1023094;29;20041;-72
2021/12/02 02:23:21;;;;;;;0.20;0.20;;;;;;;2.62;100.00;94175.56;1028334;28;20261;-70
2021/12/02 02:24:00;;;;;;;0.52;0.30;;;;;;;2.67;100.00;94188.53;1027027;28;20022;-70
2021/12/02 02:24:31;;;;;;;0.20;0.20;;;;;;;2.65;100.00;94187.22;1020240;29;20059;-71
2021/12/02 02:25:01;;;;;;;1.00;0.50;;;;;;;2.57;100.00;94184.06;1027315;28;20050;-70
2021/12/02 02:25:32;;;;;;;0.80;0.40;;;;;;;2.66;100.00;94183.59;1019294;29;20152;-69
2021/12/02 02:26:03;;;;;;;0.50;0.20;;;;;;;2.59;100.00;94179.44;1023550;29;20485;-71
2021/12/02 02:26:35;;;;;;;0.20;0.20;;;;;;;2.65;100.00;94182.03;1015568;29;20046;-70
2021/12/02 02:27:06;;;;;;;0.73;0.20;;;;;;;2.67;100.00;94187.75;1019476;29;20433;-72
2021/12/02 02:27:37;;;;;;;0.85;0.30;;;;;;;2.67;100.00;94187.75;1020039;29;20267;-72
2021/12/02 02:28:07;;;;;;;0.32;0.32;;;;;;;2.68;100.00;94191.88;1015537;29;20106;-70
2021/12/02 02:28:37;;;;;;;0.13;0.13;;;;;;;2.69;100.00;94190.88;1015744;29;20036;-72
2021/12/02 02:29:09;;;;;;;0.57;0.30;;;;;;;2.51;100.00;94161.75;1020465;28;20028;-72
2021/12/02 02:29:40;;;;;;;0.20;0.20;;;;;;;2.60;100.00;94183.56;1019878;29;20110;-73
2021/12/02 02:30:11;;;;;;;0.38;0.20;;;;;;;2.67;100.00;94191.13;1023508;29;20258;-70
2021/12/02 02:30:41;;;;;;;0.28;0.20;;;;;;;2.60;100.00;94180.97;1023844;28;20126;-71
2021/12/02 02:31:12;;;;;;;0.50;0.22;;;;;;;2.69;100.00;94202.00;1023541;28;20267;-69
2021/12/02 02:31:43;;;;;;;0.50;0.22;;;;;;;2.63;100.00;94181.53;1027506;28;20488;-69
2021/12/02 02:32:14;;;;;;;1.95;0.30;;;;;;;2.69;100.00;94193.47;1019513;29;20031;-71
2021/12/02 02:32:44;;;;;;;0.40;0.20;;;;;;;2.62;100.00;94185.16;1015923;29;20043;-70
2021/12/02 02:33:17;;;;;;;0.28;0.28;;;;;;;2.64;100.00;94194.19;1015373;29;20429;-71
2021/12/02 02:33:51;;;;;;;0.20;0.17;;;;;;;2.57;100.00;94178.13;1019825;29;20035;-70
2021/12/02 02:34:23;;;;;;;0.20;0.20;;;;;;;2.67;100.00;94187.75;1025861;28;20808;-70
2021/12/02 02:34:53;;;;;;;0.17;0.17;;;;;;;2.65;100.00;94193.19;1022529;29;20288;-71
2021/12/02 02:35:23;;;;;;;1.00;0.30;;;;;;;2.60;100.00;94183.56;1020028;29;20287;-70
2021/12/02 02:35:54;;;;;;;0.50;0.50;;;;;;;2.64;100.00;94189.03;1027481;28;20053;-72
2021/12/02 02:36:27;;;;;;;0.65;0.20;;;;;;;2.65;100.00;94182.03;1028643;28;20030;-70